Time;durP1;ratioP1;P1;durP2;ratioP2;P2;SDS_P1;SDS_P2;PMS_P1;PMS_P2;Temp;Humidity;BMP_temperature;BMP_pressure;BME280_temperature;BME280_humidity;BME280_pressure;Samples;Min_cycle;Max_cycle;Signal;HPM_P1;HPM_P2
2023/03/19 00:00:55;;;;;;;2.90;2.17;;;;;;;;;;5010703;28;20239;-94
2023/03/19 00:03:24;;;;;;;10.53;2.30;;;;;;;;;;5013413;28;20236;-95
2023/03/19 00:05:52;;;;;;;6.00;2.30;;;;;;;;;;5013776;28;20209;-95
2023/03/19 00:08:19;;;;;;;3.93;2.37;;;;;;;;;;5013711;28;20271;-95
2023/03/19 00:10:46;;;;;;;2.40;2.20;;;;;;;;;;5011720;28;20215;-95
2023/03/19 00:13:14;;;;;;;2.20;2.00;;;;;;;;;;5011627;28;20239;-95
2023/03/19 00:15:41;;;;;;;2.33;1.90;;;;;;;;;;4989109;28;20255;-95
2023/03/19 00:18:09;;;;;;;2.23;1.90;;;;;;;;;;5007877;28;20256;-94
2023/03/19 00:20:38;;;;;;;4.00;2.10;;;;;;;;;;5006895;28;20313;-94
2023/03/19 00:23:05;;;;;;;2.33;1.60;;;;;;;;;;5010586;28;20211;-95
2023/03/19 00:25:32;;;;;;;3.47;2.30;;;;;;;;;;5006401;28;20197;-95
2023/03/19 00:28:00;;;;;;;4.13;2.10;;;;;;;;;;5013089;28;20292;-93
2023/03/19 00:30:28;;;;;;;3.67;1.93;;;;;;;;;;5007094;28;20201;-93
2023/03/19 00:32:55;;;;;;;3.33;1.87;;;;;;;;;;5006944;28;20217;-94
2023/03/19 00:35:23;;;;;;;2.57;2.07;;;;;;;;;;5006619;28;20228;-94
2023/03/19 00:37:52;;;;;;;2.30;1.70;;;;;;;;;;5011868;28;20240;-93
2023/03/19 00:40:19;;;;;;;3.53;1.93;;;;;;;;;;5009616;28;20205;-95
2023/03/19 00:42:47;;;;;;;2.43;1.77;;;;;;;;;;5015169;28;20224;-95
2023/03/19 00:45:15;;;;;;;2.17;1.70;;;;;;;;;;5012520;28;20201;-94
2023/03/19 00:47:42;;;;;;;1.70;1.60;;;;;;;;;;5015836;28;20205;-95
2023/03/19 00:50:11;;;;;;;4.57;1.97;;;;;;;;;;5016785;28;20211;-94
2023/03/19 00:52:38;;;;;;;2.10;1.90;;;;;;;;;;5016130;28;20228;-95
2023/03/19 00:55:08;;;;;;;2.83;1.80;;;;;;;;;;5016460;28;20292;-95
2023/03/19 00:57:35;;;;;;;5.37;2.03;;;;;;;;;;5012207;28;20292;-94
2023/03/19 01:00:03;;;;;;;2.30;1.80;;;;;;;;;;5021835;28;20268;-94
2023/03/19 01:02:32;;;;;;;1.77;1.57;;;;;;;;;;5008791;28;20215;-93
2023/03/19 01:04:59;;;;;;;2.80;1.87;;;;;;;;;;5014930;28;20197;-88
2023/03/19 01:07:26;;;;;;;3.93;1.93;;;;;;;;;;5009021;28;20209;-95
2023/03/19 01:09:54;;;;;;;3.40;2.07;;;;;;;;;;5015891;28;20264;-94
2023/03/19 01:12:23;;;;;;;3.03;2.10;;;;;;;;;;5010135;28;20291;-92
2023/03/19 01:14:50;;;;;;;3.10;2.10;;;;;;;;;;5008196;28;20281;-93
2023/03/19 01:17:17;;;;;;;2.80;2.23;;;;;;;;;;5008021;28;20197;-94
2023/03/19 01:19:45;;;;;;;2.40;2.20;;;;;;;;;;5015251;28;20208;-96
2023/03/19 01:22:15;;;;;;;2.50;2.13;;;;;;;;;;5002403;28;20213;-95
2023/03/19 01:24:42;;;;;;;3.53;2.00;;;;;;;;;;5012694;28;20263;-93
2023/03/19 01:27:10;;;;;;;2.77;2.20;;;;;;;;;;5009842;28;20206;-94
2023/03/19 01:29:39;;;;;;;2.53;2.27;;;;;;;;;;5012154;28;20208;-96
2023/03/19 01:32:12;;;;;;;3.80;2.30;;;;;;;;;;5012784;28;20288;-94
2023/03/19 01:34:40;;;;;;;5.07;2.40;;;;;;;;;;5013912;28;20231;-96
2023/03/19 01:37:07;;;;;;;3.47;2.30;;;;;;;;;;5011099;28;20248;-93
2023/03/19 01:39:34;;;;;;;3.77;2.20;;;;;;;;;;5016043;28;20301;-94
2023/03/19 01:42:02;;;;;;;3.10;2.27;;;;;;;;;;5014729;28;20213;-93
2023/03/19 01:44:31;;;;;;;2.43;2.23;;;;;;;;;;5012602;28;20215;-94
2023/03/19 01:47:02;;;;;;;3.57;2.50;;;;;;;;;;5009389;28;20280;-94
2023/03/19 01:49:30;;;;;;;2.20;2.00;;;;;;;;;;5016006;28;20201;-92
2023/03/19 01:51:59;;;;;;;1.90;1.73;;;;;;;;;;5014114;28;20204;-92
2023/03/19 01:54:27;;;;;;;2.10;1.90;;;;;;;;;;5010508;28;20283;-94
2023/03/19 01:56:59;;;;;;;2.63;2.00;;;;;;;;;;5011888;28;20193;-93
2023/03/19 01:59:27;;;;;;;2.40;2.20;;;;;;;;;;5019615;28;20204;-93
2023/03/19 02:01:57;;;;;;;2.90;2.50;;;;;;;;;;5018549;28;20300;-95
2023/03/19 02:04:27;;;;;;;2.43;2.10;;;;;;;;;;4993108;28;20260;-94
2023/03/19 02:06:55;;;;;;;2.83;2.20;;;;;;;;;;5005435;28;20296;-96
2023/03/19 02:09:24;;;;;;;2.60;2.30;;;;;;;;;;5012601;28;20208;-95
2023/03/19 02:11:51;;;;;;;4.07;2.03;;;;;;;;;;5011398;28;20256;-95
2023/03/19 02:14:18;;;;;;;2.90;2.30;;;;;;;;;;5012677;28;20228;-92
2023/03/19 02:16:46;;;;;;;3.33;2.57;;;;;;;;;;5009941;28;20196;-93
2023/03/19 02:19:17;;;;;;;3.67;2.70;;;;;;;;;;5014909;28;20260;-94
2023/03/19 02:21:46;;;;;;;3.93;2.50;;;;;;;;;;5012399;28;20224;-94
2023/03/19 02:24:15;;;;;;;4.03;2.43;;;;;;;;;;5013913;28;20241;-94
2023/03/19 02:26:45;;;;;;;3.77;2.47;;;;;;;;;;5009771;28;20211;-94
2023/03/19 02:29:13;;;;;;;3.67;2.43;;;;;;;;;;5009070;28;20240;-95
2023/03/19 02:31:40;;;;;;;2.70;2.17;;;;;;;;;;5010631;28;20291;-95
2023/03/19 02:34:08;;;;;;;3.53;2.10;;;;;;;;;;5008550;28;20319;-94
2023/03/19 02:36:37;;;;;;;3.30;2.50;;;;;;;;;;5009380;28;20269;-94
2023/03/19 02:39:05;;;;;;;3.30;2.40;;;;;;;;;;5010342;28;20204;-95
2023/03/19 02:41:33;;;;;;;4.20;2.10;;;;;;;;;;5012068;28;20216;-88
2023/03/19 02:44:04;;;;;;;3.10;2.30;;;;;;;;;;5007437;28;20288;-92
2023/03/19 02:46:31;;;;;;;2.10;2.00;;;;;;;;;;5003988;28;20216;-93
2023/03/19 02:49:01;;;;;;;4.13;2.50;;;;;;;;;;5010548;28;20232;-93
2023/03/19 02:51:28;;;;;;;3.03;2.33;;;;;;;;;;5010516;28;20312;-94
2023/03/19 02:53:56;;;;;;;2.27;2.07;;;;;;;;;;5013179;28;20311;-94
2023/03/19 02:56:23;;;;;;;2.47;2.17;;;;;;;;;;5009241;28;20228;-93
2023/03/19 02:58:50;;;;;;;2.37;2.17;;;;;;;;;;5006469;28;20206;-94
2023/03/19 03:01:19;;;;;;;3.00;2.10;;;;;;;;;;5007328;28;20291;-93
2023/03/19 03:03:47;;;;;;;4.83;2.40;;;;;;;;;;5010601;28;20321;-95
2023/03/19 03:06:14;;;;;;;3.43;2.20;;;;;;;;;;4994316;28;20204;-95
2023/03/19 03:08:42;;;;;;;4.07;2.70;;;;;;;;;;5008521;28;20262;-95
2023/03/19 03:11:09;;;;;;;2.63;2.43;;;;;;;;;;5012610;28;20223;-94
2023/03/19 03:13:37;;;;;;;4.07;2.50;;;;;;;;;;4987305;28;20232;-94
2023/03/19 03:16:04;;;;;;;2.87;2.37;;;;;;;;;;5013444;28;20287;-94
2023/03/19 03:18:33;;;;;;;3.70;2.43;;;;;;;;;;5008732;28;20295;-92
2023/03/19 03:21:01;;;;;;;2.70;2.20;;;;;;;;;;5012823;28;20232;-93
2023/03/19 03:23:28;;;;;;;2.87;2.20;;;;;;;;;;5012858;28;20318;-92
2023/03/19 03:25:55;;;;;;;2.73;2.00;;;;;;;;;;5016374;28;20201;-93
2023/03/19 03:28:23;;;;;;;3.77;2.43;;;;;;;;;;5011335;28;20291;-93
2023/03/19 03:30:50;;;;;;;2.40;1.97;;;;;;;;;;5010425;28;20231;-94
2023/03/19 03:33:18;;;;;;;2.43;2.13;;;;;;;;;;5008887;28;20200;-93
2023/03/19 03:35:47;;;;;;;2.97;2.23;;;;;;;;;;4992186;28;20284;-94
2023/03/19 03:38:14;;;;;;;4.10;2.57;;;;;;;;;;5002107;28;20209;-92
2023/03/19 03:40:41;;;;;;;2.67;2.30;;;;;;;;;;5007397;28;20204;-94
2023/03/19 03:43:09;;;;;;;3.63;2.43;;;;;;;;;;5008203;28;20273;-93
2023/03/19 03:45:36;;;;;;;2.90;2.10;;;;;;;;;;5012913;28;20197;-94
2023/03/19 03:48:03;;;;;;;2.50;2.30;;;;;;;;;;5008529;28;20205;-93
2023/03/19 03:50:31;;;;;;;3.10;2.33;;;;;;;;;;5009757;28;20200;-93
2023/03/19 03:52:59;;;;;;;4.40;2.43;;;;;;;;;;5010374;28;20304;-95
2023/03/19 03:55:27;;;;;;;3.80;2.40;;;;;;;;;;5010091;28;20227;-95
2023/03/19 03:57:54;;;;;;;3.13;1.90;;;;;;;;;;5013542;28;20200;-93
2023/03/19 04:00:22;;;;;;;3.47;2.40;;;;;;;;;;5013766;28;20197;-92
2023/03/19 04:02:50;;;;;;;3.60;2.20;;;;;;;;;;5012888;28;20197;-94
2023/03/19 04:05:17;;;;;;;2.90;2.40;;;;;;;;;;5012198;28;20269;-94
2023/03/19 04:07:45;;;;;;;4.53;2.30;;;;;;;;;;5010247;28;20201;-94
2023/03/19 04:10:14;;;;;;;3.23;2.17;;;;;;;;;;5008642;28;20221;-90
2023/03/19 04:12:42;;;;;;;2.97;2.20;;;;;;;;;;5012121;28;20410;-95
2023/03/19 04:15:10;;;;;;;2.70;2.23;;;;;;;;;;5016083;28;20220;-94
2023/03/19 04:17:41;;;;;;;2.87;1.90;;;;;;;;;;5014502;28;20196;-94
2023/03/19 04:20:09;;;;;;;3.13;2.20;;;;;;;;;;5017781;28;20296;-94
2023/03/19 04:22:37;;;;;;;4.90;2.30;;;;;;;;;;5010779;28;20223;-95
2023/03/19 04:25:07;;;;;;;3.43;1.97;;;;;;;;;;5016550;28;20216;-94
2023/03/19 04:27:35;;;;;;;3.83;2.10;;;;;;;;;;5009085;28;20201;-94
2023/03/19 04:30:03;;;;;;;2.83;2.00;;;;;;;;;;5009608;28;20308;-93
2023/03/19 04:32:30;;;;;;;4.53;2.10;;;;;;;;;;5017652;28;20228;-93
2023/03/19 04:34:57;;;;;;;1.80;1.70;;;;;;;;;;5012430;28;20312;-94
2023/03/19 04:37:24;;;;;;;2.33;1.70;;;;;;;;;;5017082;28;20204;-95
2023/03/19 04:39:53;;;;;;;3.20;1.90;;;;;;;;;;5007733;28;20292;-93
2023/03/19 04:42:20;;;;;;;3.27;2.00;;;;;;;;;;5014058;28;20259;-94
2023/03/19 04:44:49;;;;;;;1.80;1.63;;;;;;;;;;5015181;28;20272;-93
2023/03/19 04:47:16;;;;;;;2.83;1.90;;;;;;;;;;5011703;28;20201;-92
2023/03/19 04:49:43;;;;;;;2.40;1.50;;;;;;;;;;5014216;28;20284;-94
2023/03/19 04:52:10;;;;;;;2.03;1.93;;;;;;;;;;5015125;28;20201;-94
2023/03/19 04:54:38;;;;;;;2.17;2.00;;;;;;;;;;5008118;28;20220;-94
2023/03/19 04:57:05;;;;;;;1.90;1.60;;;;;;;;;;5011699;28;20224;-94
2023/03/19 04:59:33;;;;;;;2.00;1.90;;;;;;;;;;5011759;28;20213;-94
2023/03/19 05:02:01;;;;;;;2.57;2.10;;;;;;;;;;5011496;28;20200;-94
2023/03/19 05:04:29;;;;;;;2.00;1.73;;;;;;;;;;5006194;28;20197;-94
2023/03/19 05:06:57;;;;;;;1.50;1.40;;;;;;;;;;5009693;28;20272;-94
2023/03/19 05:09:24;;;;;;;1.77;1.67;;;;;;;;;;5012070;28;20212;-95
2023/03/19 05:11:51;;;;;;;2.07;1.60;;;;;;;;;;5016436;28;20229;-93
2023/03/19 05:14:18;;;;;;;2.07;1.80;;;;;;;;;;5011876;28;20332;-94
2023/03/19 05:16:45;;;;;;;1.80;1.70;;;;;;;;;;5012482;28;20229;-94
2023/03/19 05:19:14;;;;;;;1.90;1.70;;;;;;;;;;5012217;28;20232;-94
2023/03/19 05:21:42;;;;;;;2.37;1.50;;;;;;;;;;5008526;28;20224;-94
2023/03/19 05:24:09;;;;;;;2.00;1.67;;;;;;;;;;5000940;28;20235;-95
2023/03/19 05:26:37;;;;;;;2.00;1.90;;;;;;;;;;5010347;28;20284;-88
2023/03/19 05:29:05;;;;;;;2.70;2.03;;;;;;;;;;5013470;28;20212;-94
2023/03/19 05:31:32;;;;;;;4.13;2.23;;;;;;;;;;5003277;28;20201;-93
2023/03/19 05:33:59;;;;;;;2.43;2.10;;;;;;;;;;5014419;28;20301;-94
2023/03/19 05:36:28;;;;;;;2.60;2.00;;;;;;;;;;5003519;28;20291;-93
2023/03/19 05:38:56;;;;;;;2.00;1.80;;;;;;;;;;5006417;28;20213;-93
2023/03/19 05:41:23;;;;;;;1.80;1.70;;;;;;;;;;5007327;28;20318;-95
2023/03/19 05:43:50;;;;;;;2.70;1.97;;;;;;;;;;5001888;28;20243;-93
2023/03/19 05:46:18;;;;;;;2.70;2.20;;;;;;;;;;4981851;28;20210;-94
2023/03/19 05:48:45;;;;;;;2.23;2.00;;;;;;;;;;4981126;28;20209;-95
2023/03/19 05:51:13;;;;;;;1.93;1.70;;;;;;;;;;5005331;28;20229;-95
2023/03/19 05:53:41;;;;;;;2.33;1.80;;;;;;;;;;5010928;28;20201;-95
2023/03/19 05:56:09;;;;;;;2.07;1.70;;;;;;;;;;5003616;28;20228;-94
2023/03/19 05:58:37;;;;;;;4.83;4.23;;;;;;;;;;5014549;28;20207;-95
2023/03/19 06:01:04;;;;;;;3.63;2.40;;;;;;;;;;5010460;28;20287;-92
2023/03/19 06:03:31;;;;;;;3.83;2.90;;;;;;;;;;5008084;28;20204;-96
2023/03/19 06:06:00;;;;;;;2.50;2.30;;;;;;;;;;5014886;28;20258;-93
2023/03/19 06:08:27;;;;;;;2.73;2.50;;;;;;;;;;5013017;28;20259;-96
2023/03/19 06:10:56;;;;;;;2.57;2.10;;;;;;;;;;5017927;28;20352;-96
2023/03/19 06:13:24;;;;;;;3.53;2.10;;;;;;;;;;5006419;28;20215;-93
2023/03/19 06:15:51;;;;;;;2.20;1.93;;;;;;;;;;5012531;28;20221;-95
2023/03/19 06:18:20;;;;;;;1.87;1.53;;;;;;;;;;5006144;28;20208;-94
2023/03/19 06:20:47;;;;;;;1.73;1.50;;;;;;;;;;5012718;28;20288;-95
2023/03/19 06:23:15;;;;;;;2.40;1.90;;;;;;;;;;5013133;28;20297;-95
2023/03/19 06:25:43;;;;;;;1.80;1.70;;;;;;;;;;5013418;28;20205;-95
2023/03/19 06:28:12;;;;;;;2.53;1.90;;;;;;;;;;5010607;28;20392;-96
2023/03/19 06:30:39;;;;;;;2.00;1.77;;;;;;;;;;5011329;28;20211;-95
2023/03/19 06:33:07;;;;;;;3.67;1.57;;;;;;;;;;5002478;28;20196;-94
2023/03/19 06:35:35;;;;;;;1.73;1.30;;;;;;;;;;5014510;28;20220;-95
2023/03/19 06:38:02;;;;;;;2.40;1.67;;;;;;;;;;5005800;28;20209;-94
2023/03/19 06:40:29;;;;;;;2.30;1.73;;;;;;;;;;5005998;28;20197;-94
2023/03/19 06:42:57;;;;;;;2.17;1.60;;;;;;;;;;5012532;28;20210;-96
2023/03/19 06:45:25;;;;;;;2.83;1.90;;;;;;;;;;5007542;28;20300;-96
2023/03/19 06:47:53;;;;;;;2.20;1.97;;;;;;;;;;5007368;28;20203;-94
2023/03/19 06:50:20;;;;;;;2.50;1.90;;;;;;;;;;5008564;28;20292;-93
2023/03/19 06:52:47;;;;;;;3.83;1.87;;;;;;;;;;5007380;28;20251;-95
2023/03/19 06:55:15;;;;;;;3.37;2.20;;;;;;;;;;5005095;28;20220;-92
2023/03/19 06:57:42;;;;;;;3.03;2.00;;;;;;;;;;5010935;28;20212;-91
2023/03/19 07:00:10;;;;;;;5.70;2.00;;;;;;;;;;5009591;28;20403;-91
2023/03/19 07:02:38;;;;;;;3.37;1.90;;;;;;;;;;5009386;28;20205;-91
2023/03/19 07:05:06;;;;;;;2.50;1.97;;;;;;;;;;5007451;28;20209;-91
2023/03/19 07:07:33;;;;;;;2.43;1.90;;;;;;;;;;5006711;28;20237;-91
2023/03/19 07:10:01;;;;;;;4.43;2.40;;;;;;;;;;5007840;28;20205;-91
2023/03/19 07:12:28;;;;;;;3.10;2.80;;;;;;;;;;5001988;28;20198;-94
2023/03/19 07:14:55;;;;;;;6.23;4.77;;;;;;;;;;4994510;28;20402;-93
2023/03/19 07:17:23;;;;;;;5.23;4.73;;;;;;;;;;5005826;28;20202;-90
2023/03/19 07:19:51;;;;;;;5.97;5.47;;;;;;;;;;5011925;28;20201;-91
2023/03/19 07:22:19;;;;;;;5.70;5.20;;;;;;;;;;5008488;28;20195;-92
2023/03/19 07:24:46;;;;;;;3.47;3.17;;;;;;;;;;5006211;28;20295;-90
2023/03/19 07:27:13;;;;;;;4.20;3.80;;;;;;;;;;5009640;28;20228;-92
2023/03/19 07:29:41;;;;;;;3.80;3.20;;;;;;;;;;5010923;28;20197;-92
2023/03/19 07:32:08;;;;;;;2.97;2.50;;;;;;;;;;5010711;28;20209;-94
2023/03/19 07:34:36;;;;;;;2.70;2.50;;;;;;;;;;5013419;28;20411;-94
2023/03/19 07:37:05;;;;;;;3.73;2.20;;;;;;;;;;5009185;28;20216;-94
2023/03/19 07:39:32;;;;;;;2.30;2.10;;;;;;;;;;5008502;28;20207;-92
2023/03/19 07:41:59;;;;;;;3.37;2.67;;;;;;;;;;5009925;28;20205;-94
2023/03/19 07:44:26;;;;;;;4.70;2.50;;;;;;;;;;5001603;28;20300;-93
2023/03/19 07:46:53;;;;;;;2.77;2.20;;;;;;;;;;5011480;28;20715;-93
2023/03/19 07:49:21;;;;;;;3.73;2.97;;;;;;;;;;5001101;28;20232;-93
2023/03/19 07:51:48;;;;;;;3.50;2.30;;;;;;;;;;5003676;28;20288;-92
2023/03/19 07:54:16;;;;;;;4.63;2.53;;;;;;;;;;5008967;28;20224;-94
2023/03/19 07:56:44;;;;;;;3.90;2.60;;;;;;;;;;5003748;28;20232;-96
2023/03/19 07:59:11;;;;;;;2.87;2.50;;;;;;;;;;5011121;28;20231;-95
2023/03/19 08:01:38;;;;;;;2.87;2.20;;;;;;;;;;5007193;28;20355;-95
2023/03/19 08:04:05;;;;;;;2.43;2.10;;;;;;;;;;5015812;28;20197;-95
2023/03/19 08:06:33;;;;;;;2.40;2.10;;;;;;;;;;5010027;28;20225;-96
2023/03/19 08:09:00;;;;;;;2.40;2.00;;;;;;;;;;5016950;28;20232;-96
2023/03/19 08:11:29;;;;;;;2.20;1.57;;;;;;;;;;5013610;28;20244;-93
2023/03/19 08:13:57;;;;;;;2.73;2.17;;;;;;;;;;5017847;28;20277;-95
2023/03/19 08:16:24;;;;;;;3.97;2.50;;;;;;;;;;5012360;28;20315;-95
2023/03/19 08:18:51;;;;;;;2.40;2.20;;;;;;;;;;5006321;28;20273;-93
2023/03/19 08:21:18;;;;;;;2.17;1.97;;;;;;;;;;5006302;28;20259;-94
2023/03/19 08:23:46;;;;;;;2.27;2.07;;;;;;;;;;5003932;28;20207;-94
2023/03/19 08:26:13;;;;;;;2.93;2.20;;;;;;;;;;4999801;28;20287;-93
2023/03/19 08:28:41;;;;;;;2.80;2.60;;;;;;;;;;5011175;28;20261;-95
2023/03/19 08:31:09;;;;;;;4.77;2.90;;;;;;;;;;5004237;28;20209;-93
2023/03/19 08:33:37;;;;;;;2.83;2.60;;;;;;;;;;5001342;28;20336;-93
2023/03/19 08:36:06;;;;;;;3.17;2.87;;;;;;;;;;5005214;28;20348;-91
2023/03/19 08:38:33;;;;;;;4.60;2.60;;;;;;;;;;5014285;28;20197;-91
2023/03/19 08:41:02;;;;;;;2.53;2.27;;;;;;;;;;5009359;28;20212;-92
2023/03/19 08:43:30;;;;;;;2.97;2.23;;;;;;;;;;5004403;28;20202;-91
2023/03/19 08:45:58;;;;;;;2.97;2.20;;;;;;;;;;5015674;28;20212;-92
2023/03/19 08:48:26;;;;;;;4.37;2.83;;;;;;;;;;5007706;28;20209;-91
2023/03/19 08:50:54;;;;;;;2.47;2.00;;;;;;;;;;5011577;28;20201;-90
2023/03/19 08:53:21;;;;;;;3.20;2.33;;;;;;;;;;5012916;28;20201;-91
2023/03/19 08:55:51;;;;;;;2.53;2.20;;;;;;;;;;5016156;28;20314;-93
2023/03/19 08:58:19;;;;;;;3.63;2.50;;;;;;;;;;5009731;28;20287;-93
2023/03/19 09:00:46;;;;;;;3.40;2.20;;;;;;;;;;5009976;28;20209;-93
2023/03/19 09:03:14;;;;;;;4.10;1.90;;;;;;;;;;4995751;28;20296;-93
2023/03/19 09:05:42;;;;;;;3.17;2.20;;;;;;;;;;5006616;28;20308;-91
2023/03/19 09:08:09;;;;;;;2.97;1.90;;;;;;;;;;5009539;28;20211;-91
2023/03/19 09:10:36;;;;;;;4.13;2.00;;;;;;;;;;5008018;28;20207;-91
2023/03/19 09:13:03;;;;;;;2.53;2.10;;;;;;;;;;5014661;28;20204;-91
2023/03/19 09:15:31;;;;;;;3.87;2.30;;;;;;;;;;5005530;28;20233;-91
2023/03/19 09:17:58;;;;;;;4.13;2.23;;;;;;;;;;5013281;28;20215;-90
2023/03/19 09:20:30;;;;;;;2.53;2.20;;;;;;;;;;5013713;28;20268;-92
2023/03/19 09:22:57;;;;;;;3.63;2.60;;;;;;;;;;5009355;28;20240;-91
2023/03/19 09:25:27;;;;;;;2.40;2.20;;;;;;;;;;5006612;28;20205;-91
2023/03/19 09:27:55;;;;;;;3.73;2.60;;;;;;;;;;5014469;28;20200;-91
2023/03/19 09:30:22;;;;;;;3.30;2.30;;;;;;;;;;5006205;28;20316;-91
2023/03/19 09:32:49;;;;;;;2.50;2.30;;;;;;;;;;5015321;28;20268;-90
2023/03/19 09:35:16;;;;;;;3.63;2.13;;;;;;;;;;5009365;28;20209;-91
2023/03/19 09:37:45;;;;;;;2.87;2.50;;;;;;;;;;5005907;28;20288;-91
2023/03/19 09:40:17;;;;;;;2.20;2.00;;;;;;;;;;5006860;28;20216;-92
2023/03/19 09:42:53;;;;;;;2.67;2.10;;;;;;;;;;5006199;28;20221;-91
2023/03/19 09:45:20;;;;;;;2.93;2.10;;;;;;;;;;4999538;28;20204;-91
2023/03/19 09:47:49;;;;;;;3.17;2.40;;;;;;;;;;5012466;28;20270;-91
2023/03/19 09:50:18;;;;;;;2.67;2.43;;;;;;;;;;5010551;28;20211;-92
2023/03/19 09:52:48;;;;;;;2.97;2.30;;;;;;;;;;5006131;28;20290;-91
2023/03/19 09:55:26;;;;;;;4.27;2.60;;;;;;;;;;4986552;28;20255;-91
2023/03/19 09:57:54;;;;;;;3.93;2.50;;;;;;;;;;5009335;28;20303;-91
2023/03/19 10:00:23;;;;;;;4.70;2.80;;;;;;;;;;5014579;28;20213;-91
2023/03/19 10:02:53;;;;;;;3.03;2.33;;;;;;;;;;4996766;28;20205;-91
2023/03/19 10:05:25;;;;;;;2.67;2.47;;;;;;;;;;5013690;28;20213;-91
2023/03/19 10:08:03;;;;;;;3.27;2.80;;;;;;;;;;5002738;28;20272;-90
2023/03/19 10:10:44;;;;;;;3.20;2.80;;;;;;;;;;5001928;28;20225;-92
2023/03/19 10:13:19;;;;;;;3.63;2.50;;;;;;;;;;5010693;28;20284;-91
2023/03/19 10:15:46;;;;;;;3.67;2.50;;;;;;;;;;5008550;28;20227;-91
2023/03/19 10:18:17;;;;;;;3.37;2.50;;;;;;;;;;5008157;28;20197;-90
2023/03/19 10:20:47;;;;;;;4.23;2.37;;;;;;;;;;5008213;28;20205;-91
2023/03/19 10:23:29;;;;;;;2.43;2.23;;;;;;;;;;5008423;28;20225;-90
2023/03/19 10:25:59;;;;;;;3.37;2.30;;;;;;;;;;4994214;28;20197;-92
2023/03/19 10:28:27;;;;;;;2.93;2.40;;;;;;;;;;5008982;28;20201;-91
2023/03/19 10:30:58;;;;;;;2.73;2.27;;;;;;;;;;5008972;28;20261;-91
2023/03/19 10:33:26;;;;;;;3.60;2.60;;;;;;;;;;5001343;28;20207;-93
2023/03/19 10:35:58;;;;;;;2.33;2.13;;;;;;;;;;5006168;28;20224;-90
2023/03/19 10:38:27;;;;;;;4.03;2.80;;;;;;;;;;5009428;28;20219;-91
2023/03/19 10:41:04;;;;;;;3.17;2.70;;;;;;;;;;5013606;28;20193;-90
2023/03/19 10:43:33;;;;;;;2.93;2.60;;;;;;;;;;5007125;28;20227;-90
2023/03/19 10:46:00;;;;;;;2.73;2.20;;;;;;;;;;5011704;28;20201;-91
2023/03/19 10:48:29;;;;;;;3.83;2.90;;;;;;;;;;4997055;28;20213;-90
2023/03/19 10:50:58;;;;;;;3.27;2.67;;;;;;;;;;5005799;28;20204;-91
2023/03/19 10:53:29;;;;;;;2.40;2.20;;;;;;;;;;5002832;28;20204;-90
2023/03/19 10:56:01;;;;;;;2.97;2.57;;;;;;;;;;5014277;28;20213;-91
2023/03/19 10:58:29;;;;;;;2.97;2.40;;;;;;;;;;5000901;28;20256;-91
2023/03/19 11:00:57;;;;;;;4.87;2.80;;;;;;;;;;5008208;28;20215;-89
2023/03/19 11:03:30;;;;;;;4.17;3.00;;;;;;;;;;5007246;28;20209;-90
2023/03/19 11:06:04;;;;;;;3.00;2.70;;;;;;;;;;5002421;28;20212;-91
2023/03/19 11:08:35;;;;;;;3.90;2.90;;;;;;;;;;4994530;28;20292;-90
2023/03/19 11:11:04;;;;;;;3.50;2.70;;;;;;;;;;5006129;28;20213;-90
2023/03/19 11:13:31;;;;;;;3.23;2.90;;;;;;;;;;5004693;28;20204;-89
2023/03/19 11:16:00;;;;;;;2.57;2.37;;;;;;;;;;5009238;28;20229;-90
2023/03/19 11:18:28;;;;;;;2.67;2.47;;;;;;;;;;5012221;28;20205;-89
2023/03/19 11:20:57;;;;;;;5.00;3.20;;;;;;;;;;5005954;28;20189;-90
2023/03/19 11:23:27;;;;;;;3.60;3.30;;;;;;;;;;5007759;28;20216;-91
2023/03/19 11:25:55;;;;;;;4.45;3.60;;;;;;;;;;5008655;28;20211;-91
2023/03/19 11:28:25;;;;;;;4.07;3.30;;;;;;;;;;5007110;28;20323;-91
2023/03/19 11:30:56;;;;;;;3.80;3.00;;;;;;;;;;5009618;28;20205;-89
2023/03/19 11:33:36;;;;;;;2.70;2.40;;;;;;;;;;5007163;28;20197;-96
2023/03/19 11:36:09;;;;;;;2.33;2.13;;;;;;;;;;5008380;28;20225;-91
2023/03/19 11:38:41;;;;;;;2.20;2.10;;;;;;;;;;5006058;28;20228;-91
2023/03/19 11:41:15;;;;;;;2.20;2.00;;;;;;;;;;5009374;28;20311;-91
2023/03/19 11:43:50;;;;;;;3.60;2.30;;;;;;;;;;5006330;28;20215;-91
2023/03/19 11:46:38;;;;;;;2.67;2.47;;;;;;;;;;5010357;28;20212;-91
2023/03/19 11:49:16;;;;;;;2.40;2.20;;;;;;;;;;5000976;28;20235;-91
2023/03/19 11:51:47;;;;;;;3.90;2.40;;;;;;;;;;5010085;28;20255;-92
2023/03/19 11:54:20;;;;;;;4.10;3.13;;;;;;;;;;5005113;28;20201;-94
2023/03/19 11:56:49;;;;;;;4.70;3.08;;;;;;;;;;5011095;28;20220;-91
2023/03/19 11:59:37;;;;;;;3.17;2.30;;;;;;;;;;5006431;28;20288;-90
2023/03/19 12:02:19;;;;;;;2.90;2.60;;;;;;;;;;4971833;28;20256;-91
2023/03/19 12:04:58;;;;;;;4.00;2.90;;;;;;;;;;5004710;28;20204;-92
2023/03/19 12:07:29;;;;;;;3.20;2.90;;;;;;;;;;5005301;28;20211;-90
2023/03/19 12:10:00;;;;;;;3.23;2.93;;;;;;;;;;5005486;28;20216;-90
2023/03/19 12:12:33;;;;;;;3.73;3.40;;;;;;;;;;5005167;28;20300;-91
2023/03/19 12:15:05;;;;;;;2.73;2.50;;;;;;;;;;4999565;28;20241;-90
2023/03/19 12:17:40;;;;;;;3.65;3.00;;;;;;;;;;5002179;28;20233;-91
2023/03/19 12:20:16;;;;;;;3.40;3.13;;;;;;;;;;5004645;28;20208;-90
2023/03/19 12:22:51;;;;;;;4.53;3.47;;;;;;;;;;5006856;28;20263;-89
2023/03/19 12:25:33;;;;;;;3.17;2.50;;;;;;;;;;5008781;28;20213;-90
2023/03/19 12:28:04;;;;;;;3.15;2.95;;;;;;;;;;5007121;28;20201;-93
2023/03/19 12:30:34;;;;;;;3.28;2.97;;;;;;;;;;5009005;28;20205;-92
2023/03/19 12:33:19;;;;;;;3.20;2.30;;;;;;;;;;5006911;28;20236;-90
2023/03/19 12:35:49;;;;;;;4.85;2.80;;;;;;;;;;4999841;28;20292;-91
2023/03/19 12:38:19;;;;;;;2.95;2.75;;;;;;;;;;5008942;28;20400;-93
2023/03/19 12:40:50;;;;;;;2.88;2.67;;;;;;;;;;5008958;28;20205;-92
2023/03/19 12:43:19;;;;;;;2.38;2.17;;;;;;;;;;5008659;28;20256;-94
2023/03/19 12:45:48;;;;;;;3.67;2.40;;;;;;;;;;5010782;28;20211;-91
2023/03/19 12:48:18;;;;;;;3.28;2.97;;;;;;;;;;5010392;28;20220;-92
2023/03/19 12:50:49;;;;;;;2.35;2.15;;;;;;;;;;5007388;28;20201;-91
2023/03/19 12:53:26;;;;;;;2.80;2.55;;;;;;;;;;5010811;28;20197;-94
2023/03/19 12:55:56;;;;;;;2.42;2.22;;;;;;;;;;5013762;28;20283;-94
2023/03/19 12:58:30;;;;;;;3.05;2.85;;;;;;;;;;5010920;28;20212;-94
2023/03/19 13:01:01;;;;;;;2.58;2.38;;;;;;;;;;5003479;28;20202;-90
2023/03/19 13:03:34;;;;;;;2.80;2.50;;;;;;;;;;5011121;28;20201;-91
2023/03/19 13:06:07;;;;;;;3.10;2.80;;;;;;;;;;5006285;28;20268;-91
2023/03/19 13:08:39;;;;;;;2.53;2.40;;;;;;;;;;5004129;28;20240;-91
2023/03/19 13:11:11;;;;;;;2.88;2.55;;;;;;;;;;5009410;28;20209;-91
2023/03/19 13:13:41;;;;;;;3.00;2.25;;;;;;;;;;5006925;28;20215;-91
2023/03/19 13:16:14;;;;;;;2.60;2.40;;;;;;;;;;5009884;28;20197;-92
2023/03/19 13:18:45;;;;;;;2.35;2.15;;;;;;;;;;5010753;28;20255;-91
2023/03/19 13:21:21;;;;;;;2.65;2.38;;;;;;;;;;5013864;28;20211;-91
2023/03/19 13:23:51;;;;;;;2.53;2.33;;;;;;;;;;5014044;28;20192;-91
2023/03/19 13:26:19;;;;;;;3.05;2.20;;;;;;;;;;5013653;28;20295;-91
2023/03/19 13:28:56;;;;;;;2.60;2.40;;;;;;;;;;5009783;28;20295;-89
2023/03/19 13:31:25;;;;;;;2.50;2.30;;;;;;;;;;5012098;28;20214;-89
2023/03/19 13:33:54;;;;;;;3.05;2.78;;;;;;;;;;5013332;28;20205;-86
2023/03/19 13:36:22;;;;;;;4.00;3.60;;;;;;;;;;5011605;28;20205;-86
2023/03/19 13:38:52;;;;;;;3.15;2.95;;;;;;;;;;5005612;28;20201;-87
2023/03/19 13:41:41;;;;;;;3.67;3.38;;;;;;;;;;5009859;28;20194;-88
2023/03/19 13:44:24;;;;;;;2.15;2.05;;;;;;;;;;5005689;28;20216;-88
2023/03/19 13:46:52;;;;;;;1.92;1.80;;;;;;;;;;5012157;28;20295;-86
2023/03/19 13:49:37;;;;;;;2.05;1.88;;;;;;;;;;5005419;28;20228;-85
2023/03/19 13:52:23;;;;;;;1.70;1.60;;;;;;;;;;5009041;28;20244;-87
2023/03/19 13:54:53;;;;;;;1.80;1.70;;;;;;;;;;5013315;28;20212;-86
2023/03/19 13:57:21;;;;;;;1.70;1.60;;;;;;;;;;5012129;28;20240;-88
2023/03/19 13:59:49;;;;;;;2.42;1.80;;;;;;;;;;5009061;28;20208;-93
2023/03/19 14:02:35;;;;;;;1.50;1.40;;;;;;;;;;5009956;28;20205;-91
2023/03/19 14:05:09;;;;;;;1.90;1.70;;;;;;;;;;5008288;28;20204;-88
2023/03/19 14:07:38;;;;;;;1.50;1.40;;;;;;;;;;5005271;28;20229;-90
2023/03/19 14:10:08;;;;;;;1.23;1.13;;;;;;;;;;5007278;28;20205;-91
2023/03/19 14:12:37;;;;;;;1.40;1.30;;;;;;;;;;5013073;28;20204;-91
2023/03/19 14:15:15;;;;;;;1.67;1.52;;;;;;;;;;5001461;28;20206;-90
2023/03/19 14:17:45;;;;;;;1.33;1.30;;;;;;;;;;5007853;28;20225;-91
2023/03/19 14:20:26;;;;;;;1.80;1.38;;;;;;;;;;5004868;28;20264;-89
2023/03/19 14:22:55;;;;;;;1.23;1.20;;;;;;;;;;5004127;28;20290;-89
2023/03/19 14:25:24;;;;;;;1.30;1.25;;;;;;;;;;5009431;28;20201;-89
2023/03/19 14:27:58;;;;;;;1.10;1.10;;;;;;;;;;5006016;28;20201;-89
2023/03/19 14:30:31;;;;;;;1.50;1.35;;;;;;;;;;5012214;28;20209;-89
2023/03/19 14:33:01;;;;;;;1.15;1.10;;;;;;;;;;5009965;28;20258;-89
2023/03/19 14:35:29;;;;;;;1.17;1.10;;;;;;;;;;5001918;28;20216;-89
2023/03/19 14:37:57;;;;;;;1.35;1.25;;;;;;;;;;5008663;28;20217;-89
2023/03/19 14:40:27;;;;;;;1.17;1.08;;;;;;;;;;5007184;28;20213;-89
2023/03/19 14:42:59;;;;;;;1.00;1.00;;;;;;;;;;5009420;28;20230;-89
2023/03/19 14:45:43;;;;;;;1.38;1.10;;;;;;;;;;5005191;28;20201;-90
2023/03/19 14:48:20;;;;;;;1.17;1.02;;;;;;;;;;5009314;28;20205;-89
2023/03/19 14:51:06;;;;;;;0.85;0.85;;;;;;;;;;5011991;28;20304;-89
2023/03/19 14:53:37;;;;;;;1.20;1.20;;;;;;;;;;4986663;28;20288;-89
2023/03/19 14:56:13;;;;;;;1.58;0.90;;;;;;;;;;5016878;28;20291;-92